Time;durP1;ratioP1;P1;durP2;ratioP2;P2;SDS_P1;SDS_P2;PMS_P1;PMS_P2;Temp;Humidity;BMP_temperature;BMP_pressure;BME280_temperature;BME280_humidity;BME280_pressure;Samples;Min_cycle;Max_cycle;Signal;HPM_P1;HPM_P2
2022/11/02 00:01:22;;;;;;;24.87;18.20;;;;;;;11.25;100.00;99146.05;2172198;81;20970;-84
2022/11/02 00:04:23;;;;;;;33.97;20.27;;;;;;;11.25;100.00;99149.97;2171239;81;20985;-84
2022/11/02 00:07:23;;;;;;;38.05;20.02;;;;;;;11.25;100.00;99140.83;2170417;82;20969;-84
2022/11/02 00:10:24;;;;;;;31.87;21.10;;;;;;;11.30;100.00;99145.72;2171581;81;20933;-84
2022/11/02 00:13:24;;;;;;;39.53;21.55;;;;;;;11.32;100.00;99150.97;2171129;82;20989;-84
2022/11/02 00:16:24;;;;;;;26.52;19.30;;;;;;;11.33;100.00;99156.21;2170437;81;20913;-84
2022/11/02 00:19:25;;;;;;;31.35;19.35;;;;;;;11.33;100.00;99160.13;2170942;81;20969;-84
2022/11/02 00:22:25;;;;;;;39.27;21.48;;;;;;;11.31;100.00;99159.23;2171703;81;20934;-84
2022/11/02 00:25:26;;;;;;;41.13;22.58;;;;;;;11.28;100.00;99160.50;2172293;81;21029;-85
2022/11/02 00:28:27;;;;;;;60.35;21.93;;;;;;;11.25;100.00;99160.84;2170711;81;20896;-84
2022/11/02 00:31:26;;;;;;;44.20;21.85;;;;;;;11.25;100.00;99163.03;2170689;81;20929;-84
2022/11/02 00:34:27;;;;;;;36.77;21.17;;;;;;;11.26;100.00;99165.22;2170687;81;21017;-84
2022/11/02 00:37:27;;;;;;;39.47;21.10;;;;;;;11.24;100.00;99169.12;2172242;81;20961;-84
2022/11/02 00:40:28;;;;;;;39.38;22.02;;;;;;;11.25;100.00;99163.03;2171047;82;20922;-84
2022/11/02 00:43:28;;;;;;;35.52;21.45;;;;;;;11.31;100.00;99168.38;2170751;81;20941;-84
2022/11/02 00:46:28;;;;;;;35.05;20.88;;;;;;;11.35;100.00;99163.65;2170340;81;20977;-84
2022/11/02 00:49:29;;;;;;;51.30;23.07;;;;;;;11.36;100.00;99166.71;2172158;81;20945;-84
2022/11/02 00:52:30;;;;;;;46.80;22.97;;;;;;;11.37;100.00;99159.31;2171761;81;20969;-84
2022/11/02 00:55:30;;;;;;;31.50;21.23;;;;;;;11.41;100.00;99162.42;2172869;81;20984;-84
2022/11/02 00:58:30;;;;;;;37.33;21.20;;;;;;;11.45;100.00;99164.22;2171195;81;21371;-84
2022/11/02 01:01:30;;;;;;;33.60;21.40;;;;;;;11.51;100.00;99161.23;2172327;81;20977;-85
2022/11/02 01:04:31;;;;;;;31.95;20.17;;;;;;;11.54;100.00;99169.12;2171894;81;20969;-85
2022/11/02 01:07:31;;;;;;;34.75;20.52;;;;;;;11.56;100.00;99164.79;2172774;81;20989;-84
2022/11/02 01:10:32;;;;;;;30.10;20.23;;;;;;;11.57;100.00;99173.08;2172992;81;20926;-85
2022/11/02 01:13:32;;;;;;;45.08;19.95;;;;;;;11.54;100.00;99175.23;2170919;81;21297;-84
2022/11/02 01:16:32;;;;;;;26.85;19.52;;;;;;;11.52;100.00;99178.68;2172060;81;20941;-85
2022/11/02 01:19:33;;;;;;;28.70;18.65;;;;;;;11.48;100.00;99182.56;2171499;81;20961;-86
2022/11/02 01:22:33;;;;;;;29.13;18.57;;;;;;;11.46;100.00;99182.97;2171509;81;20961;-85
2022/11/02 01:25:34;;;;;;;27.27;18.62;;;;;;;11.40;100.00;99185.50;2172175;81;20996;-85
2022/11/02 01:28:34;;;;;;;25.70;18.15;;;;;;;11.40;100.00;99187.23;2172274;81;20921;-85
2022/11/02 01:31:35;;;;;;;26.27;17.62;;;;;;;11.36;100.00;99184.13;2171110;81;20922;-86
2022/11/02 01:34:35;;;;;;;38.10;19.30;;;;;;;11.32;100.00;99191.05;2170201;81;20973;-85
2022/11/02 01:37:35;;;;;;;33.30;18.93;;;;;;;11.30;100.00;99181.42;2171317;81;20912;-85
2022/11/02 01:40:36;;;;;;;31.87;19.17;;;;;;;11.28;100.00;99179.22;2171490;81;20913;-85
2022/11/02 01:43:36;;;;;;;30.23;18.93;;;;;;;11.25;100.00;99181.33;2172482;81;20960;-85
2022/11/02 01:46:37;;;;;;;27.50;18.40;;;;;;;11.25;100.00;99181.76;2171237;81;20980;-85
2022/11/02 01:49:37;;;;;;;29.30;18.90;;;;;;;11.25;100.00;99180.02;2173040;81;20973;-84
2022/11/02 01:52:37;;;;;;;25.70;19.23;;;;;;;11.26;100.00;99186.13;2170765;81;20961;-85
2022/11/02 01:55:38;;;;;;;28.00;18.37;;;;;;;11.25;100.00;99188.29;2172259;81;20964;-85
2022/11/02 01:58:38;;;;;;;32.70;18.40;;;;;;;11.25;100.00;99188.29;2170874;81;20957;-85
2022/11/02 02:01:39;;;;;;;28.37;19.33;;;;;;;11.24;100.00;99190.02;2171774;81;21004;-85
2022/11/02 02:04:39;;;;;;;48.53;20.27;;;;;;;11.24;100.00;99188.72;2170423;81;21329;-85
2022/11/02 02:07:39;;;;;;;39.30;19.85;;;;;;;11.24;100.00;99191.33;2172143;81;21039;-85
2022/11/02 02:10:40;;;;;;;31.63;19.57;;;;;;;11.25;100.00;99189.59;2171579;81;21004;-85
2022/11/02 02:13:40;;;;;;;33.23;19.60;;;;;;;11.22;100.00;99180.41;2170795;81;20969;-84
2022/11/02 02:16:41;;;;;;;34.23;19.43;;;;;;;11.23;100.00;99188.27;2171049;81;20925;-85
2022/11/02 02:19:41;;;;;;;29.37;18.67;;;;;;;11.22;100.00;99193.04;2171514;81;21316;-85
2022/11/02 02:22:41;;;;;;;36.27;19.97;;;;;;;11.18;100.00;99189.94;2170411;81;20937;-84
2022/11/02 02:25:42;;;;;;;29.40;19.55;;;;;;;11.14;100.00;99186.83;2170569;81;20992;-84
2022/11/02 02:28:42;;;;;;;34.38;19.15;;;;;;;11.11;100.00;99194.62;2171102;81;20957;-84
2022/11/02 02:31:43;;;;;;;34.33;20.63;;;;;;;11.08;100.00;99185.42;2171175;81;21301;-84
2022/11/02 02:34:43;;;;;;;37.63;21.13;;;;;;;11.06;100.00;99192.36;2171521;81;20984;-85
2022/11/02 02:37:43;;;;;;;46.40;21.70;;;;;;;11.03;100.00;99191.89;2170728;81;20897;-85
2022/11/02 02:40:44;;;;;;;34.03;22.07;;;;;;;11.01;100.00;99195.33;2171960;81;21341;-84
2022/11/02 02:43:44;;;;;;;43.30;23.83;;;;;;;10.96;100.00;99194.38;2171912;82;20972;-84
2022/11/02 02:46:45;;;;;;;53.70;23.85;;;;;;;10.92;100.00;99198.67;2171383;81;20941;-84
2022/11/02 02:49:45;;;;;;;40.50;22.27;;;;;;;10.88;100.00;99201.22;2171419;81;20972;-85
2022/11/02 02:52:46;;;;;;;36.03;21.33;;;;;;;10.84;100.00;99203.78;2170925;81;21320;-85
2022/11/02 02:55:46;;;;;;;33.17;21.00;;;;;;;10.80;100.00;99203.27;2171443;81;20969;-80
2022/11/02 02:58:46;;;;;;;38.83;22.23;;;;;;;10.83;100.00;99205.94;2172166;81;20933;-85
2022/11/02 03:01:47;;;;;;;40.58;22.25;;;;;;;10.82;100.00;99211.13;2172442;81;20992;-85
2022/11/02 03:04:47;;;;;;;34.33;20.90;;;;;;;10.75;100.00;99209.27;2171069;81;20992;-84
2022/11/02 03:07:48;;;;;;;37.50;22.27;;;;;;;10.66;100.00;99216.95;2172387;81;21037;-85
2022/11/02 03:10:48;;;;;;;36.67;21.10;;;;;;;10.58;100.00;99215.51;2171647;81;20981;-85
2022/11/02 03:13:48;;;;;;;35.37;22.93;;;;;;;10.51;100.00;99221.47;2170275;81;20965;-85
2022/11/02 03:16:49;;;;;;;53.50;24.83;;;;;;;10.47;100.00;99223.15;2171904;81;20902;-85
2022/11/02 03:19:49;;;;;;;67.13;25.57;;;;;;;10.42;100.00;99231.32;2172296;81;20961;-84
2022/11/02 03:22:50;;;;;;;53.67;23.50;;;;;;;10.35;100.00;99230.72;2173466;81;21173;-84
2022/11/02 03:25:50;;;;;;;38.63;20.73;;;;;;;10.30;100.00;99229.75;2172237;81;21011;-82
2022/11/02 03:28:51;;;;;;;32.23;21.17;;;;;;;10.27;100.00;99232.73;2173039;81;21072;-85
2022/11/02 03:31:53;;;;;;;37.67;21.37;;;;;;;10.24;100.00;99228.33;2171832;81;20932;-84
2022/11/02 03:34:51;;;;;;;35.33;20.93;;;;;;;10.18;100.00;99231.67;2170762;81;21380;-86
2022/11/02 03:37:52;;;;;;;32.83;20.93;;;;;;;10.15;100.00;99233.34;2171524;81;20913;-86
2022/11/02 03:40:52;;;;;;;34.63;21.97;;;;;;;10.07;100.00;99238.41;2171883;81;20968;-84
2022/11/02 03:43:52;;;;;;;33.40;22.07;;;;;;;10.03;100.00;99242.22;2171782;81;21349;-86
2022/11/02 03:46:53;;;;;;;34.70;21.87;;;;;;;9.99;100.00;99241.70;2171681;81;20961;-85
2022/11/02 03:49:53;;;;;;;39.03;22.47;;;;;;;9.97;100.00;99252.53;2170719;81;20922;-85
2022/11/02 03:52:54;;;;;;;42.03;23.60;;;;;;;9.91;100.00;99249.38;2171126;81;20937;-85
2022/11/02 03:55:54;;;;;;;47.87;24.73;;;;;;;9.90;100.00;99245.00;2170614;81;20953;-84
2022/11/02 03:58:54;;;;;;;53.87;26.10;;;;;;;9.86;100.00;99239.27;2171334;81;20961;-85
2022/11/02 04:01:55;;;;;;;38.43;21.73;;;;;;;9.81;100.00;99247.42;2171534;81;21005;-86
2022/11/02 04:04:55;;;;;;;41.67;24.47;;;;;;;9.77;100.00;99243.87;2169926;81;21013;-86
2022/11/02 04:14:40;;;;;;;32.20;22.77;;;;;;;9.74;100.00;99252.05;2171512;82;21001;-85
2022/11/02 04:20:59;;;;;;;39.17;22.97;;;;;;;9.81;100.00;99257.42;2171109;82;20958;-85
2022/11/02 04:27:18;;;;;;;49.07;24.60;;;;;;;9.92;100.00;99255.05;2170550;82;20989;-85
2022/11/02 04:30:18;;;;;;;33.03;22.37;;;;;;;10.01;100.00;99256.96;2170946;81;20995;-84
2022/11/02 04:33:34;;;;;;;49.87;26.00;;;;;;;10.04;100.00;99256.59;2170940;81;20977;-83
2022/11/02 04:36:34;;;;;;;55.57;27.33;;;;;;;10.08;100.00;99254.52;2170383;81;20929;-85
2022/11/02 04:39:35;;;;;;;40.87;24.07;;;;;;;10.09;100.00;99256.69;2169636;81;20910;-85
2022/11/02 04:42:35;;;;;;;40.57;24.13;;;;;;;10.17;100.00;99255.12;2171649;81;20929;-84
2022/11/02 04:45:35;;;;;;;37.67;22.73;;;;;;;10.14;100.00;99255.94;2169279;82;20949;-83
2022/11/02 04:48:36;;;;;;;48.30;25.77;;;;;;;10.10;100.00;99258.03;2169339;81;20976;-86
2022/11/02 04:51:38;;;;;;;46.63;27.47;;;;;;;10.07;100.00;99261.87;2169847;81;21011;-85
2022/11/02 04:54:37;;;;;;;49.97;27.77;;;;;;;10.06;100.00;99257.52;2169293;81;21293;-84
2022/11/02 04:57:37;;;;;;;39.37;25.63;;;;;;;10.07;100.00;99269.70;2171203;81;20964;-84
2022/11/02 05:00:37;;;;;;;48.57;26.83;;;;;;;10.03;100.00;99266.58;2169100;81;20996;-83
2022/11/02 05:03:38;;;;;;;50.23;26.53;;;;;;;10.02;100.00;99269.16;2168734;81;21019;-86
2022/11/02 05:06:38;;;;;;;45.47;25.73;;;;;;;10.02;100.00;99273.06;2168480;81;20988;-84
2022/11/02 05:09:41;;;;;;;60.53;26.97;;;;;;;9.97;100.00;99275.58;2169886;81;21064;-83
2022/11/02 05:12:39;;;;;;;33.57;23.27;;;;;;;9.92;100.00;99267.20;2170703;81;20968;-83
2022/11/02 05:15:39;;;;;;;47.20;24.00;;;;;;;9.88;100.00;99268.44;2170606;81;21384;-85
2022/11/02 05:18:40;;;;;;;54.60;26.30;;;;;;;9.85;100.00;99270.11;2170361;81;20988;-85
2022/11/02 05:21:40;;;;;;;46.43;26.23;;;;;;;9.82;100.00;99276.13;2170747;81;20988;-85
2022/11/02 05:24:41;;;;;;;55.47;28.10;;;;;;;9.92;100.00;99277.20;2170946;81;21055;-84
2022/11/02 05:27:41;;;;;;;34.77;24.13;;;;;;;9.87;100.00;99282.75;2171579;81;21412;-83
2022/11/02 05:30:41;;;;;;;39.63;26.43;;;;;;;9.85;100.00;99289.66;2171897;81;20948;-84
2022/11/02 05:33:42;;;;;;;37.77;24.43;;;;;;;9.86;100.00;99290.12;2171280;81;21060;-84
2022/11/02 05:36:42;;;;;;;40.63;26.13;;;;;;;9.88;100.00;99297.55;2171291;81;20956;-84
2022/11/02 05:39:43;;;;;;;41.50;26.60;;;;;;;9.95;100.00;99297.26;2170686;81;21380;-83
2022/11/02 05:42:43;;;;;;;44.95;28.07;;;;;;;10.03;100.00;99299.18;2170270;81;21013;-82
2022/11/02 05:45:43;;;;;;;40.48;27.15;;;;;;;10.10;100.00;99295.85;2170107;81;21016;-83
2022/11/02 05:48:44;;;;;;;38.95;25.25;;;;;;;10.19;100.00;99301.26;2170041;81;20980;-82
2022/11/02 05:51:44;;;;;;;44.10;25.73;;;;;;;10.29;100.00;99301.48;2169840;81;21353;-83
2022/11/02 05:54:45;;;;;;;39.50;26.63;;;;;;;10.37;100.00;99302.08;2169697;82;20933;-83
2022/11/02 05:57:45;;;;;;;39.43;26.30;;;;;;;10.45;100.00;99300.54;2169719;81;21012;-81
2022/11/02 06:00:45;;;;;;;42.70;26.23;;;;;;;10.53;100.00;99300.69;2169814;81;21505;-81
2022/11/02 06:03:46;;;;;;;35.73;25.40;;;;;;;10.59;100.00;99303.41;2170569;81;21079;-83
2022/11/02 06:06:46;;;;;;;36.27;25.93;;;;;;;10.63;100.00;99309.14;2170658;81;20961;-81
2022/11/02 06:09:47;;;;;;;41.00;26.30;;;;;;;10.68;100.00;99303.59;2169591;81;20996;-82
2022/11/02 06:12:47;;;;;;;45.10;26.27;;;;;;;10.75;100.00;99310.68;2169421;81;21341;-83
2022/11/02 06:15:48;;;;;;;39.10;26.30;;;;;;;10.82;100.00;99317.77;2169334;81;20977;-81
2022/11/02 06:18:48;;;;;;;51.97;28.87;;;;;;;10.88;100.00;99312.20;2169621;81;20940;-81
2022/11/02 06:21:48;;;;;;;43.37;26.53;;;;;;;10.91;100.00;99311.84;2169282;81;21364;-82
2022/11/02 06:24:49;;;;;;;45.35;27.60;;;;;;;10.90;100.00;99312.69;2169585;81;20988;-81
2022/11/02 06:27:49;;;;;;;41.60;27.80;;;;;;;10.87;100.00;99319.16;2169549;81;20928;-82
2022/11/02 06:30:50;;;;;;;46.77;28.27;;;;;;;10.85;100.00;99320.44;2169321;81;20992;-83
2022/11/02 06:33:50;;;;;;;36.60;26.27;;;;;;;10.86;100.00;99325.24;2169805;81;21266;-82
2022/11/02 06:36:50;;;;;;;38.75;26.07;;;;;;;10.84;100.00;99316.50;2170242;81;20929;-82
2022/11/02 06:39:51;;;;;;;36.10;25.48;;;;;;;10.87;100.00;99313.94;2169919;81;21000;-78
2022/11/02 06:42:51;;;;;;;45.25;26.75;;;;;;;10.89;100.00;99321.38;2165461;81;20984;-82
2022/11/02 06:45:52;;;;;;;47.00;27.85;;;;;;;10.94;100.00;99325.38;2169827;81;20948;-83
2022/11/02 06:48:52;;;;;;;42.10;27.22;;;;;;;10.96;100.00;99325.86;2170067;81;20995;-83
2022/11/02 06:51:52;;;;;;;56.88;29.45;;;;;;;11.03;100.00;99315.09;2170181;81;20968;-82
2022/11/02 06:54:53;;;;;;;46.75;28.73;;;;;;;11.12;100.00;99319.17;2169615;81;21232;-81
2022/11/02 06:57:53;;;;;;;39.18;25.02;;;;;;;11.23;100.00;99326.77;2169759;81;21020;-80
2022/11/02 07:00:54;;;;;;;46.50;27.90;;;;;;;11.30;100.00;99331.70;2169579;81;21423;-83
2022/11/02 07:03:54;;;;;;;36.90;24.52;;;;;;;11.31;100.00;99320.39;2169701;81;21028;-81
2022/11/02 07:06:54;;;;;;;36.03;23.27;;;;;;;11.30;99.93;99328.66;2170755;81;21190;-83
2022/11/02 07:09:55;;;;;;;36.15;23.98;;;;;;;11.30;99.86;99333.00;2175994;81;21000;-81
2022/11/02 07:12:55;;;;;;;34.20;23.42;;;;;;;11.30;99.81;99331.27;2176734;82;21411;-81
2022/11/02 07:15:56;;;;;;;35.90;25.55;;;;;;;11.34;99.81;99330.89;2176239;82;21401;-82
2022/11/02 07:18:56;;;;;;;40.48;25.97;;;;;;;11.36;99.58;99327.45;2175591;82;21012;-81
2022/11/02 07:21:56;;;;;;;46.48;27.77;;;;;;;11.36;99.56;99328.75;2166224;81;20990;-81
2022/11/02 07:24:57;;;;;;;37.10;26.62;;;;;;;11.37;99.64;99322.67;2167478;81;20957;-82
2022/11/02 07:28:00;;;;;;;42.78;26.70;;;;;;;11.44;99.62;99324.95;2167331;81;20983;-82
2022/11/02 07:31:01;;;;;;;44.30;26.40;;;;;;;11.54;99.46;99322.06;2167914;81;21380;-80
2022/11/02 07:34:01;;;;;;;39.58;25.25;;;;;;;11.61;98.87;99319.99;2166692;81;21056;-81
2022/11/02 07:37:02;;;;;;;36.65;24.52;;;;;;;11.67;98.99;99321.39;2167228;82;21019;-82
2022/11/02 07:40:02;;;;;;;38.28;24.77;;;;;;;11.71;98.48;99328.42;2166338;81;21926;-80
2022/11/02 07:43:02;;;;;;;39.38;25.60;;;;;;;11.82;98.74;99329.49;2165938;81;21039;-81
2022/11/02 07:46:03;;;;;;;49.42;29.20;;;;;;;11.96;98.11;99325.34;2166056;81;21036;-80
2022/11/02 07:49:03;;;;;;;39.70;25.20;;;;;;;12.02;97.71;99324.55;2166172;81;21040;-81
2022/11/02 07:52:03;;;;;;;40.00;23.77;;;;;;;12.11;97.34;99329.47;2166287;81;22003;-80
2022/11/02 07:55:04;;;;;;;37.10;23.90;;;;;;;12.22;96.76;99327.03;2166633;81;21033;-81
2022/11/02 07:58:07;;;;;;;34.50;22.80;;;;;;;12.27;96.73;99318.80;2166366;81;20941;-81
2022/11/02 08:01:07;;;;;;;34.75;21.57;;;;;;;12.38;95.69;99318.50;2166737;82;21001;-80
2022/11/02 08:04:08;;;;;;;37.98;22.98;;;;;;;12.47;95.90;99322.97;2166941;81;21491;-79
2022/11/02 08:07:08;;;;;;;29.63;20.30;;;;;;;12.57;95.83;99322.22;2166865;81;21460;-83
2022/11/02 08:10:09;;;;;;;54.63;21.17;;;;;;;12.72;94.63;99318.89;2166909;81;21503;-82
2022/11/02 08:13:09;;;;;;;33.85;21.25;;;;;;;12.78;94.23;99318.95;2167179;81;21021;-82
2022/11/02 08:16:09;;;;;;;30.23;19.70;;;;;;;12.83;93.08;99321.62;2167507;81;20952;-82
2022/11/02 08:19:10;;;;;;;38.20;22.62;;;;;;;12.88;92.67;99317.30;2167113;81;21024;-81
2022/11/02 08:22:10;;;;;;;33.88;20.92;;;;;;;12.97;93.32;99312.16;2167654;81;21036;-82
2022/11/02 08:25:11;;;;;;;36.68;20.40;;;;;;;13.08;93.20;99314.05;2169096;81;20957;-80
2022/11/02 08:28:11;;;;;;;29.63;19.17;;;;;;;13.17;93.08;99314.59;2168007;81;20979;-79
2022/11/02 08:31:11;;;;;;;28.95;18.77;;;;;;;13.27;92.17;99315.12;2165199;81;21039;-79
2022/11/02 08:34:12;;;;;;;31.37;19.77;;;;;;;13.34;91.62;99314.30;2165840;81;20987;-80
2022/11/02 08:37:12;;;;;;;27.48;17.85;;;;;;;13.47;91.28;99315.71;2164050;81;20980;-80
2022/11/02 08:40:13;;;;;;;32.38;19.37;;;;;;;13.58;90.83;99316.67;2166214;82;20988;-81
2022/11/02 08:43:13;;;;;;;23.70;17.00;;;;;;;13.65;90.36;99316.72;2167284;81;21959;-80
2022/11/02 08:46:14;;;;;;;31.85;18.15;;;;;;;13.72;90.16;99312.39;2165919;81;20964;-80
2022/11/02 08:49:17;;;;;;;26.70;16.60;;;;;;;13.80;89.04;99315.95;2165289;81;21239;-79
2022/11/02 08:52:14;;;;;;;24.30;16.45;;;;;;;13.85;86.40;99309.41;2166883;82;21005;-81
2022/11/02 08:55:19;;;;;;;27.45;15.93;;;;;;;13.83;86.96;99309.84;2152783;82;21035;-80
2022/11/02 08:58:19;;;;;;;22.15;15.35;;;;;;;13.80;87.94;99306.77;2165725;81;20989;-81
2022/11/02 09:01:20;;;;;;;23.15;16.25;;;;;;;13.94;88.57;99306.44;2167379;81;21885;-81
2022/11/02 09:04:20;;;;;;;22.50;15.38;;;;;;;14.08;87.90;99305.20;2166422;81;20976;-80
2022/11/02 09:07:21;;;;;;;23.87;15.70;;;;;;;14.22;87.46;99300.02;2165425;81;21000;-79
2022/11/02 09:10:21;;;;;;;22.45;15.85;;;;;;;14.34;87.51;99299.63;2168784;81;21019;-80
2022/11/02 09:13:24;;;;;;;24.82;14.38;;;;;;;14.44;85.03;99297.95;2167712;81;20996;-80
2022/11/02 09:16:22;;;;;;;27.87;16.82;;;;;;;14.60;85.18;99301.50;2167431;81;20949;-80
2022/11/02 09:19:22;;;;;;;22.93;15.38;;;;;;;14.76;84.79;99294.13;2164450;81;21012;-79
2022/11/02 09:22:23;;;;;;;28.00;13.78;;;;;;;14.84;84.25;99292.40;2163554;81;21087;-80
2022/11/02 09:25:23;;;;;;;22.77;14.95;;;;;;;14.86;83.67;99292.40;2163849;81;20961;-81
2022/11/02 09:28:24;;;;;;;19.57;14.45;;;;;;;14.88;83.29;99291.97;2167675;81;20941;-79
2022/11/02 09:31:24;;;;;;;19.45;14.55;;;;;;;14.90;83.09;99292.41;2165451;81;21028;-79
2022/11/02 09:34:25;;;;;;;20.02;14.70;;;;;;;14.96;82.90;99283.66;2167225;81;20976;-79
2022/11/02 09:37:25;;;;;;;20.72;13.30;;;;;;;14.97;82.74;99289.35;2168120;81;21333;-79
2022/11/02 09:40:25;;;;;;;19.55;13.10;;;;;;;14.98;82.19;99287.16;2165413;81;20984;-80
2022/11/02 09:43:26;;;;;;;28.15;12.98;;;;;;;15.04;82.12;99288.92;2166363;81;21291;-80
2022/11/02 09:46:26;;;;;;;16.75;12.37;;;;;;;15.07;81.50;99285.86;2167017;81;20957;-80
2022/11/02 09:49:27;;;;;;;15.95;12.40;;;;;;;15.11;81.26;99290.23;2166521;81;21940;-79
2022/11/02 09:52:27;;;;;;;16.87;12.40;;;;;;;15.22;82.02;99281.04;2166655;81;21056;-80
2022/11/02 09:55:27;;;;;;;19.48;11.35;;;;;;;15.35;81.68;99285.86;2166987;81;21282;-79
2022/11/02 09:58:28;;;;;;;20.02;11.88;;;;;;;15.44;80.21;99281.91;2167141;81;20980;-78
2022/11/02 10:01:28;;;;;;;16.10;11.65;;;;;;;15.53;81.13;99285.84;2168582;81;21031;-81
2022/11/02 10:04:29;;;;;;;15.68;11.30;;;;;;;15.56;79.54;99283.21;2169933;81;21001;-79
2022/11/02 10:07:29;;;;;;;14.87;9.68;;;;;;;15.58;79.15;99284.12;2165360;81;21023;-78
2022/11/02 10:10:30;;;;;;;15.03;10.30;;;;;;;15.65;78.64;99291.16;2171698;81;21066;-81
2022/11/02 10:13:30;;;;;;;17.07;9.88;;;;;;;15.77;78.99;99284.56;2171586;81;20965;-79
2022/11/02 10:16:30;;;;;;;12.90;8.78;;;;;;;15.76;77.58;99285.44;2165087;81;21396;-80
2022/11/02 10:19:31;;;;;;;11.28;8.20;;;;;;;15.78;77.54;99284.99;2165235;81;21250;-80
2022/11/02 10:22:31;;;;;;;11.10;7.87;;;;;;;15.67;76.27;99284.58;2164788;80;21047;-80
2022/11/02 10:25:32;;;;;;;18.32;9.35;;;;;;;15.67;76.54;99276.25;2165091;81;20929;-80
2022/11/02 10:28:32;;;;;;;9.50;7.37;;;;;;;15.74;77.33;99287.20;2165636;82;21384;-79
2022/11/02 10:31:32;;;;;;;13.55;7.78;;;;;;;15.76;75.45;99277.55;2165271;80;20972;-78
2022/11/02 10:34:33;;;;;;;11.22;7.53;;;;;;;15.85;76.25;99278.84;2166277;81;20976;-80
2022/11/02 10:37:33;;;;;;;12.58;7.85;;;;;;;15.97;73.69;99288.45;2167141;81;20929;-81
2022/11/02 10:40:34;;;;;;;15.32;7.62;;;;;;;16.11;73.66;99281.39;2167747;80;21044;-80
2022/11/02 10:43:34;;;;;;;12.05;7.95;;;;;;;16.22;74.21;99283.98;2168087;81;21000;-80
2022/11/02 10:46:37;;;;;;;13.98;7.90;;;;;;;16.38;74.49;99276.89;2166592;81;21049;-80
2022/11/02 10:49:35;;;;;;;17.55;8.90;;;;;;;16.46;72.95;99275.97;2167649;80;20957;-78
2022/11/02 10:52:35;;;;;;;15.95;7.72;;;;;;;16.64;71.43;99282.94;2166807;81;20983;-81
2022/11/02 10:55:36;;;;;;;16.67;7.65;;;;;;;16.75;69.71;99277.64;2165377;80;20999;-79
2022/11/02 10:58:36;;;;;;;66.70;11.25;;;;;;;16.90;70.31;99277.98;2167794;81;21036;-81
2022/11/02 11:01:37;;;;;;;16.75;7.67;;;;;;;16.97;70.27;99266.50;2167259;81;20977;-80
2022/11/02 11:04:37;;;;;;;19.95;7.75;;;;;;;16.99;67.73;99273.52;2167581;81;21000;-80
2022/11/02 11:07:37;;;;;;;15.30;7.37;;;;;;;16.97;68.38;99268.70;2125568;83;21075;-82
2022/11/02 11:10:38;;;;;;;13.78;7.67;;;;;;;17.02;67.14;99268.22;2125998;84;21051;-81
2022/11/02 11:13:38;;;;;;;10.88;7.35;;;;;;;16.99;67.60;99272.20;2123943;83;21007;-78
2022/11/02 11:16:39;;;;;;;21.23;7.72;;;;;;;16.95;67.64;99274.42;2122259;83;20998;-77
2022/11/02 11:19:39;;;;;;;11.75;7.20;;;;;;;16.94;67.16;99271.80;2123276;83;20971;-77
2022/11/02 11:22:40;;;;;;;12.78;7.30;;;;;;;16.93;67.40;99270.92;2121457;83;21026;-77
2022/11/02 11:25:40;;;;;;;13.72;6.72;;;;;;;16.99;66.19;99269.56;2122097;84;21540;-76
2022/11/02 11:28:41;;;;;;;18.37;7.87;;;;;;;17.02;66.45;99263.39;2123391;83;21290;-83
2022/11/02 11:31:41;;;;;;;30.57;8.60;;;;;;;16.99;66.30;99255.05;2125610;83;21009;-84
2022/11/02 11:34:41;;;;;;;18.23;8.35;;;;;;;17.00;65.74;99260.77;2126085;83;20964;-81
2022/11/02 11:37:42;;;;;;;20.43;8.15;;;;;;;17.00;65.36;99260.77;2125257;83;21070;-80
2022/11/02 11:40:42;;;;;;;16.90;7.97;;;;;;;16.96;66.29;99252.44;2125187;83;21000;-80
2022/11/02 11:43:43;;;;;;;28.65;9.25;;;;;;;16.99;66.06;99252.42;2124732;83;21951;-79
2022/11/02 11:46:43;;;;;;;20.95;8.75;;;;;;;16.93;64.86;99256.42;2123986;83;21038;-80
2022/11/02 11:49:43;;;;;;;24.20;8.08;;;;;;;16.87;64.50;99250.75;2123364;83;21011;-80
2022/11/02 11:52:44;;;;;;;18.40;7.08;;;;;;;16.85;64.94;99252.96;2123264;83;20936;-80
2022/11/02 11:55:44;;;;;;;11.45;7.20;;;;;;;16.85;65.37;99251.64;2123879;83;21035;-79
2022/11/02 11:58:45;;;;;;;21.68;7.95;;;;;;;16.89;65.38;99253.37;2124206;83;20995;-79
2022/11/02 12:01:45;;;;;;;31.17;8.60;;;;;;;16.91;65.40;99254.23;2123009;83;21734;-82
2022/11/02 12:04:45;;;;;;;21.75;7.62;;;;;;;16.98;65.59;99253.30;2124301;83;21046;-78
2022/11/02 12:07:46;;;;;;;17.85;7.00;;;;;;;17.06;65.50;99258.08;2123640;83;21039;-80
2022/11/02 12:10:46;;;;;;;15.40;7.17;;;;;;;17.04;65.48;99257.22;2122298;83;21016;-81
2022/11/02 12:13:48;;;;;;;14.80;6.83;;;;;;;17.05;64.02;99257.65;2123610;84;21627;-80
2022/11/02 12:16:50;;;;;;;12.73;6.58;;;;;;;17.03;64.43;99257.23;2123096;83;20960;-81
2022/11/02 12:19:49;;;;;;;7.90;5.40;;;;;;;17.00;62.98;99258.12;2123549;83;20941;-80
2022/11/02 12:22:49;;;;;;;9.43;5.55;;;;;;;16.86;61.12;99258.22;2124681;83;21003;-80
2022/11/02 12:25:49;;;;;;;10.50;5.95;;;;;;;16.70;62.75;99250.43;2124811;83;20995;-81
2022/11/02 12:28:50;;;;;;;12.40;6.28;;;;;;;16.56;62.07;99251.36;2125065;83;21466;-81
2022/11/02 12:31:50;;;;;;;14.80;6.10;;;;;;;16.41;62.48;99255.80;2123683;83;21007;-81
2022/11/02 12:34:51;;;;;;;10.35;6.37;;;;;;;16.34;64.21;99250.12;2123607;83;20960;-81
2022/11/02 12:37:51;;;;;;;13.90;6.37;;;;;;;16.28;64.25;99259.38;2124593;83;21028;-80
2022/11/02 12:40:51;;;;;;;13.32;6.35;;;;;;;16.17;64.56;99260.73;2124372;83;20964;-82
2022/11/02 12:43:52;;;;;;;9.75;6.25;;;;;;;15.96;64.41;99255.11;2124282;83;21675;-82
2022/11/02 12:46:52;;;;;;;9.40;5.70;;;;;;;15.85;64.21;99247.25;2124478;83;20953;-80
2022/11/02 12:49:53;;;;;;;6.60;4.75;;;;;;;15.80;63.43;99249.02;2121947;83;20956;-79
2022/11/02 12:52:53;;;;;;;10.68;5.10;;;;;;;15.79;62.69;99255.16;2122129;83;21040;-81
2022/11/02 12:55:53;;;;;;;6.25;4.90;;;;;;;15.75;63.69;99249.47;2122708;83;22029;-80
2022/11/02 12:58:54;;;;;;;9.95;5.67;;;;;;;15.75;64.02;99248.16;2122771;83;21027;-80
2022/11/02 13:01:54;;;;;;;12.80;6.00;;;;;;;15.78;63.94;99251.22;2122817;83;20964;-78
2022/11/02 13:04:55;;;;;;;10.05;5.08;;;;;;;15.78;62.85;99263.94;2121726;83;21595;-80
2022/11/02 13:07:55;;;;;;;12.23;5.22;;;;;;;15.73;63.96;99256.94;2121572;83;21023;-80
2022/11/02 13:10:55;;;;;;;7.22;4.62;;;;;;;15.68;64.19;99260.89;2121608;83;21087;-80
2022/11/02 13:13:56;;;;;;;9.75;4.05;;;;;;;15.66;63.37;99258.70;2122663;84;21455;-79
2022/11/02 13:16:58;;;;;;;6.33;3.98;;;;;;;15.65;61.31;99261.34;2121399;84;21007;-80
2022/11/02 13:19:58;;;;;;;7.22;3.35;;;;;;;15.55;60.03;99252.08;2121080;84;20987;-79
2022/11/02 13:22:58;;;;;;;8.65;4.72;;;;;;;15.48;61.21;99252.97;2120794;84;21521;-80
2022/11/02 13:25:59;;;;;;;9.83;4.25;;;;;;;15.45;62.28;99252.09;2120204;84;21027;-80
2022/11/02 13:28:59;;;;;;;7.30;4.35;;;;;;;15.44;62.01;99243.33;2120849;84;21114;-80
2022/11/02 13:32:02;;;;;;;15.35;6.97;;;;;;;15.42;61.78;99246.39;2087919;85;21084;-80
2022/11/02 13:35:02;;;;;;;31.37;16.37;;;;;;;15.39;62.08;99245.52;2105417;84;21072;-78
2022/11/02 13:38:02;;;;;;;30.30;16.65;;;;;;;15.37;62.71;99240.70;2110797;83;22156;-80
2022/11/02 13:41:03;;;;;;;13.90;8.33;;;;;;;15.32;62.25;99249.91;2112593;84;21266;-79
2022/11/02 13:44:08;;;;;;;19.75;10.40;;;;;;;15.27;62.18;99243.34;2112986;84;21108;-80
2022/11/02 13:47:05;;;;;;;29.80;14.50;;;;;;;15.19;62.50;99246.86;2102669;84;21029;-80
2022/11/02 13:50:06;;;;;;;29.00;12.40;;;;;;;15.12;62.98;99245.98;2112904;84;21036;-82
2022/11/02 13:53:07;;;;;;;16.23;10.18;;;;;;;15.06;63.26;99251.23;2115662;83;21353;-80
2022/11/02 13:56:07;;;;;;;20.12;10.20;;;;;;;14.98;63.98;99250.36;2114886;83;20993;-82
2022/11/02 13:59:07;;;;;;;11.60;7.17;;;;;;;14.94;64.25;99256.48;2114904;84;21145;-81
2022/11/02 14:02:07;;;;;;;9.33;6.65;;;;;;;14.88;64.74;99249.91;2115525;84;21076;-80